Aeroporto :
LOGIN :

Iscrizione | Disclaimer

   EN    FR    IT 

 










Sommario :    VFR   VFR Marginale   IFR   IFR Intensivo   IFR Molto Intensivo
Visibilità : 
Base nubi : 
>= 8 km
>= 3000ft
5 / 8 km
1000 / 3000 ft
1500m / 5 km
500 / 1000 ft
800 / 1500m
200 / 500 ft
< 800m
< 200 ft
Simboli :   Temporali  Nebbia  Neve Forte  Precipitazioni Forti  Vento > 20 kt
SIGMETs :   Varie  Temporali  Ghiacco  Turbolenza  Onda orograficha  Ceneri Vulcaniche






- Altitudine del aeroporto : 1363 ft


ETIC - Grafenwohr Army Air Field

ULTIMO METAR :
  • 112356Z AUTO 00000KT 8000 -UP BR BKN007 OVC013 00/00 A2968 RMK AO2 UPB2257E08UPB35 CIG 007V011 SLP072 P0000 60000 T00010000 10004 21002 $

METARs OBSOLETI :
  • 112350Z AUTO 00000KT 9000 -UP BR BKN009 OVC017 00/00 A2968 RMK AO2 UPB2257E08UPB35 CIG 009V017 SLP072 $
  • 112335Z AUTO M 9999 -UP SCT011 OVC016 00/00 A2968 RMK AO2 UPB2257E08UPB35 CIG 011V016 SLP072 $
  • 112308Z AUTO 17006KT 9999 OVC011 00/00 A2969 RMK AO2 UPB2257E08 SLP077 $
  • 112257Z AUTO 15003KT 9999 -UP M 00/00 A2969 RMK AO2 UPB57 SLP077 $
  • 112256Z AUTO 16003KT 9999 M 00/00 A2969 RMK AO2 SLP077 T00041005 400131064 $
  • 112156Z AUTO 00000KT 9999 OVC013 00/M01 A2971 RMK AO2 UPB31E43 SLP084 P0000 T00031013 $
  • 112143Z AUTO 15003KT 9999 OVC014 00/M01 A2971 RMK AO2 UPB31E43 SLP084 $
  • 112131Z AUTO 16004KT 9999 -UP OVC014 00/M02 A2971 RMK AO2 UPB31 SLP084 $

TAF AMD TAF ETIC
Valido dal 11 a 22 ore il 13 a 04 ore UTC


112217Z 1122/1304 20009KT 8000 -RASN OVC014 620307 QNH2972INS
BECMG 1210/1211 VRB06KT 8000 -SHRA OVC015 620406 QNH2968INS
BECMG 1218/1219 18009KT 8000 -SN OVC015 620505 QNH2953INS
BECMG 1300/1301 VRB06KT 8000 BR OVC015 620505 QNH2930INS TX04/1214Z TNM01/1218Z



MetMap, La meteo Aeronautica in un colpo d'occhio ! - Copyright ORBIFLY Dicembre 2007 - Disclaimer

ORBIFLY MET'MAP TEAM :

Programmazione e sviluppo : Alexandra Zaïnal
Concezione : Baudouin d'Aumeries
Aiuto per la programmazione : Marc-Olivier Méhu
Supporto tecnico e logistico : Manuel Goepfert
Aiuto per la traduzione : Arnaldo La Scala

Contatto : metmap@orbifly.com




FONTI E CREDITI :

   NOAA